Time;durP1;ratioP1;P1;durP2;ratioP2;P2;SDS_P1;SDS_P2;PMS_P1;PMS_P2;Temp;Humidity;BMP_temperature;BMP_pressure;BME280_temperature;BME280_humidity;BME280_pressure;Samples;Min_cycle;Max_cycle;Signal;HPM_P1;HPM_P2
2023/07/07 00:00:11;;;;;;;8.05;6.25;;;;;;;-146.25;100.00;52155.31;2087777;28;35663;-73
2023/07/07 00:01:12;;;;;;;6.75;6.00;;;;;;;-146.25;100.00;52149.22;2087226;28;43849;-72
2023/07/07 00:02:16;;;;;;;6.35;5.75;;;;;;;-146.25;100.00;52149.22;2088338;28;20146;-73
2023/07/07 00:03:19;;;;;;;6.88;6.20;;;;;;;-146.25;100.00;52165.44;2087199;28;37706;-73
2023/07/07 00:04:21;;;;;;;7.75;5.53;;;;;;;-146.25;100.00;52161.38;2087760;28;34358;-73
2023/07/07 00:05:23;;;;;;;7.82;5.85;;;;;;;-146.25;100.00;52139.09;2087779;28;20050;-73
2023/07/07 00:06:26;;;;;;;7.63;5.68;;;;;;;-146.25;100.00;52185.72;2086745;28;38388;-74
2023/07/07 00:07:28;;;;;;;9.57;6.70;;;;;;;-146.25;100.00;52159.34;2087509;28;32917;-73
2023/07/07 00:08:31;;;;;;;8.38;5.82;;;;;;;-146.25;100.00;52161.38;2087877;28;30074;-73
2023/07/07 00:09:33;;;;;;;11.32;7.60;;;;;;;-146.25;100.00;52143.13;2087618;28;35381;-72
2023/07/07 00:10:34;;;;;;;10.05;8.05;;;;;;;-146.25;100.00;52157.34;2087401;28;36225;-73
2023/07/07 00:11:36;;;;;;;10.27;9.00;;;;;;;-146.25;100.00;52096.50;2087608;28;35887;-73
2023/07/07 00:12:40;;;;;;;12.93;9.13;;;;;;;-146.25;100.00;52118.81;2088261;28;33835;-73
2023/07/07 00:13:45;;;;;;;9.75;7.68;;;;;;;-146.25;100.00;52155.31;2088354;28;20152;-73
2023/07/07 00:14:47;;;;;;;10.90;7.82;;;;;;;-146.25;100.00;52147.19;2087517;28;38218;-73
2023/07/07 00:15:59;;;;;;;10.50;7.90;;;;;;;-146.25;100.00;52120.84;2087846;28;31373;-73
2023/07/07 00:17:01;;;;;;;10.93;7.53;;;;;;;-146.25;100.00;52177.59;2087535;28;36891;-74
2023/07/07 00:18:03;;;;;;;11.70;8.20;;;;;;;-146.25;100.00;52179.63;2087658;28;37068;-73
2023/07/07 00:19:09;;;;;;;10.35;8.35;;;;;;;-146.25;100.00;52114.75;2088490;28;20858;-73
2023/07/07 00:20:14;;;;;;;12.30;8.95;;;;;;;-146.25;100.00;52139.09;2087208;28;39294;-73
2023/07/07 00:21:15;;;;;;;10.07;7.45;;;;;;;-146.25;100.00;52133.00;2086827;28;34538;-74
2023/07/07 00:22:17;;;;;;;11.40;8.65;;;;;;;-146.25;100.00;52133.00;2088121;28;20046;-73
2023/07/07 00:23:21;;;;;;;11.32;9.07;;;;;;;-146.25;100.00;52165.44;2087329;28;38130;-73
2023/07/07 00:24:25;;;;;;;9.73;7.88;;;;;;;-146.25;100.00;52177.59;2086996;28;34875;-73
2023/07/07 00:25:27;;;;;;;9.65;7.97;;;;;;;-146.25;100.00;52149.22;2087651;28;20037;-73
2023/07/07 00:26:32;;;;;;;13.88;8.07;;;;;;;-146.25;100.00;52133.00;2088026;28;20034;-73
2023/07/07 00:27:36;;;;;;;12.52;10.68;;;;;;;-146.25;100.00;52161.38;2088346;28;20204;-73
2023/07/07 00:28:38;;;;;;;12.27;9.82;;;;;;;-146.25;100.00;52147.19;2087843;28;27053;-73
2023/07/07 00:29:42;;;;;;;11.25;10.05;;;;;;;-146.25;100.00;52169.50;2095235;28;28191;-73
2023/07/07 00:30:44;;;;;;;19.65;12.25;;;;;;;-146.25;100.00;52141.13;2095485;28;20049;-73
2023/07/07 00:31:46;;;;;;;16.42;10.70;;;;;;;-146.25;100.00;52135.03;2086886;28;33876;-72
2023/07/07 00:32:47;;;;;;;14.88;10.82;;;;;;;-146.25;100.00;52181.66;2087342;28;27142;-73
2023/07/07 00:33:49;;;;;;;12.43;10.85;;;;;;;-146.25;100.00;52159.34;2087077;28;25935;-73
2023/07/07 00:34:53;;;;;;;13.57;10.00;;;;;;;-146.25;100.00;52086.38;2079402;28;26524;-73
2023/07/07 00:35:55;;;;;;;11.57;9.20;;;;;;;-146.25;100.00;52130.97;2087398;28;20096;-73
2023/07/07 00:36:57;;;;;;;12.60;9.90;;;;;;;-146.25;100.00;52128.94;2087740;28;20045;-73
2023/07/07 00:37:59;;;;;;;12.38;9.70;;;;;;;-146.25;100.00;52143.13;2087537;28;22136;-73
2023/07/07 00:39:01;;;;;;;11.32;9.73;;;;;;;-146.25;100.00;52133.00;2084121;28;25146;-73
2023/07/07 00:40:05;;;;;;;13.00;11.40;;;;;;;-146.25;100.00;52183.69;2087817;28;21112;-73
2023/07/07 00:41:09;;;;;;;18.60;11.13;;;;;;;-146.25;100.00;52126.91;2087538;28;28589;-73
2023/07/07 00:42:11;;;;;;;15.68;12.00;;;;;;;-146.25;100.00;52195.84;2087747;28;29722;-73
2023/07/07 00:43:18;;;;;;;13.95;10.45;;;;;;;-146.25;100.00;52177.59;2087648;28;32866;-73
2023/07/07 00:44:20;;;;;;;16.77;11.70;;;;;;;-146.25;100.00;52177.59;2086408;28;36216;-73
2023/07/07 00:45:22;;;;;;;18.48;11.02;;;;;;;-146.25;100.00;52155.31;2087150;28;28370;-74
2023/07/07 00:46:25;;;;;;;15.98;12.25;;;;;;;-146.25;100.00;52177.59;2087443;28;31257;-73
2023/07/07 00:47:27;;;;;;;13.90;11.52;;;;;;;-146.25;100.00;52153.28;2087876;28;23220;-73
2023/07/07 00:48:46;;;;;;;14.95;11.50;;;;;;;-146.25;100.00;52133.00;2087012;28;31441;-73
2023/07/07 00:49:48;;;;;;;15.82;12.30;;;;;;;-146.25;100.00;52149.22;2081097;28;32337;-73
2023/07/07 00:51:18;;;;;;;18.27;13.80;;;;;;;-146.25;100.00;52130.97;2088918;28;28487;-73
2023/07/07 00:52:20;;;;;;;17.42;13.82;;;;;;;-146.25;100.00;52149.22;2089763;28;20156;-74
2023/07/07 00:53:27;;;;;;;17.35;13.20;;;;;;;-146.25;100.00;52165.44;2089492;28;20041;-73
2023/07/07 00:54:35;;;;;;;16.27;12.85;;;;;;;-146.25;100.00;52143.13;2087906;28;28504;-73
2023/07/07 00:55:49;;;;;;;16.88;12.85;;;;;;;-146.25;100.00;52124.91;2082168;28;20164;-73
2023/07/07 00:56:54;;;;;;;17.20;12.80;;;;;;;-146.25;100.00;52126.91;2088816;28;28962;-73
2023/07/07 00:58:05;;;;;;;16.67;12.88;;;;;;;-146.25;100.00;52135.03;2090935;28;24707;-74
2023/07/07 00:59:20;;;;;;;13.75;12.23;;;;;;;-146.25;100.00;52128.94;2088639;28;31193;-73
2023/07/07 01:00:25;;;;;;;20.77;13.35;;;;;;;-146.25;100.00;52126.91;2083044;28;27347;-74
2023/07/07 01:01:27;;;;;;;15.07;11.63;;;;;;;-146.25;100.00;52141.13;2088947;28;28965;-73
2023/07/07 01:02:29;;;;;;;15.98;12.73;;;;;;;-146.25;100.00;52133.00;2087941;28;33214;-73
2023/07/07 01:03:40;;;;;;;18.52;14.95;;;;;;;-146.25;100.00;52120.84;2088596;28;35238;-73
2023/07/07 01:04:48;;;;;;;14.55;12.85;;;;;;;-146.25;100.00;52141.13;2088465;28;30381;-73
2023/07/07 01:05:55;;;;;;;15.98;12.95;;;;;;;-146.25;100.00;52181.66;2090165;28;28923;-73
2023/07/07 01:07:04;;;;;;;18.70;14.15;;;;;;;-146.25;100.00;52157.34;2088531;28;26430;-73
2023/07/07 01:08:08;;;;;;;18.33;14.80;;;;;;;-146.25;100.00;52153.28;2081890;28;37165;-73
2023/07/07 01:09:10;;;;;;;19.58;15.10;;;;;;;-146.25;100.00;52137.06;2088238;28;20891;-73
2023/07/07 01:10:15;;;;;;;20.58;15.60;;;;;;;-146.25;100.00;52181.66;2088672;28;20037;-73
2023/07/07 01:11:18;;;;;;;21.00;15.07;;;;;;;-146.25;100.00;52141.13;2088559;28;24136;-73
2023/07/07 01:12:20;;;;;;;17.27;14.40;;;;;;;-146.25;100.00;52130.97;2089201;28;26490;-73
2023/07/07 01:13:22;;;;;;;18.60;15.10;;;;;;;-146.25;100.00;52143.13;2089429;28;20071;-73
2023/07/07 01:14:29;;;;;;;16.60;14.15;;;;;;;-146.25;100.00;52167.47;2080381;28;20030;-73
2023/07/07 01:15:42;;;;;;;18.05;13.43;;;;;;;-146.25;100.00;52143.13;2081592;28;20092;-73
2023/07/07 01:17:29;;;;;;;19.35;14.85;;;;;;;-146.25;100.00;52179.63;2088500;28;27920;-73
2023/07/07 01:18:49;;;;;;;18.17;14.27;;;;;;;-146.25;100.00;52153.28;2096635;28;26650;-74
2023/07/07 01:20:41;;;;;;;18.77;12.00;;;;;;;-146.25;100.00;52157.34;2088754;28;28161;-73
2023/07/07 01:21:49;;;;;;;15.05;12.35;;;;;;;-146.25;100.00;52185.72;2080023;28;32551;-73
2023/07/07 01:23:32;;;;;;;14.80;11.63;;;;;;;-146.25;100.00;52120.84;2087091;28;20962;-72
2023/07/07 01:24:57;;;;;;;15.35;11.80;;;;;;;-146.25;100.00;52173.56;2089506;28;20242;-73
2023/07/07 01:26:28;;;;;;;16.77;12.25;;;;;;;-146.25;100.00;52124.91;2096742;28;26187;-73
2023/07/07 01:27:46;;;;;;;;;;;;;;;-146.25;100.00;52137.06;2092629;28;35615;-73
2023/07/07 01:29:13;;;;;;;12.55;11.10;;;;;;;-146.25;100.00;52183.69;2089678;28;19921;-73
2023/07/07 01:30:44;;;;;;;14.80;11.90;;;;;;;-146.25;100.00;52147.19;2089264;28;29373;-72
2023/07/07 01:31:59;;;;;;;12.23;11.02;;;;;;;-146.25;100.00;52185.72;2088027;28;26033;-72
2023/07/07 01:33:09;;;;;;;15.18;12.50;;;;;;;-146.25;100.00;52141.13;2081927;28;26554;-73
2023/07/07 01:34:16;;;;;;;13.93;11.75;;;;;;;-146.25;100.00;52179.63;2082383;28;27721;-73
2023/07/07 01:35:22;;;;;;;16.75;13.77;;;;;;;-146.25;100.00;52159.34;2081859;28;20957;-73
2023/07/07 01:36:25;;;;;;;18.02;14.02;;;;;;;-146.25;100.00;52149.22;2088726;28;20045;-73
2023/07/07 01:37:27;;;;;;;15.13;13.52;;;;;;;-146.25;100.00;52100.56;2087395;28;39908;-73
2023/07/07 01:38:43;;;;;;;17.60;13.48;;;;;;;-146.25;100.00;52116.78;2088107;28;31311;-73
2023/07/07 01:39:45;;;;;;;17.02;13.05;;;;;;;-146.25;100.00;52163.41;2089074;28;20088;-73
2023/07/07 01:40:59;;;;;;;15.73;12.50;;;;;;;-146.25;100.00;52141.13;2080353;28;24763;-73
2023/07/07 01:42:21;;;;;;;16.20;12.73;;;;;;;-146.25;100.00;52161.38;2074487;28;29839;-72
2023/07/07 01:43:37;;;;;;;16.85;13.25;;;;;;;-146.25;100.00;52169.50;2088678;28;31770;-73
2023/07/07 01:45:23;;;;;;;17.65;12.98;;;;;;;-146.25;100.00;52177.59;2087796;28;31938;-73
2023/07/07 01:46:48;;;;;;;15.98;12.05;;;;;;;-146.25;100.00;52130.97;2079798;28;30540;-73
2023/07/07 01:48:11;;;;;;;14.48;11.68;;;;;;;-146.25;100.00;52181.66;2087378;28;29907;-73
2023/07/07 01:49:46;;;;;;;16.05;12.25;;;;;;;-146.25;100.00;52165.44;2090946;28;36223;-72
2023/07/07 01:50:51;;;;;;;14.45;12.63;;;;;;;-146.25;100.00;52181.66;2088313;28;30311;-72
2023/07/07 01:52:10;;;;;;;14.18;11.35;;;;;;;-146.25;100.00;52155.31;2084575;28;31690;-73
2023/07/07 01:53:21;;;;;;;16.13;12.02;;;;;;;-146.25;100.00;52199.91;2083438;28;20046;-73
2023/07/07 01:54:28;;;;;;;13.32;11.93;;;;;;;-146.25;100.00;52159.34;2087889;28;33559;-72
2023/07/07 01:55:39;;;;;;;15.68;12.73;;;;;;;-146.25;100.00;52145.16;2088666;28;29373;-73
2023/07/07 01:56:43;;;;;;;16.73;11.50;;;;;;;-146.25;100.00;52175.56;2096388;28;20152;-73
2023/07/07 01:57:51;;;;;;;12.48;11.15;;;;;;;-146.25;100.00;52155.31;2087977;28;20099;-73
2023/07/07 01:58:54;;;;;;;14.80;11.63;;;;;;;-146.25;100.00;52139.09;2081491;28;20089;-73
2023/07/07 01:59:57;;;;;;;13.88;12.27;;;;;;;-146.25;100.00;52210.03;2081157;28;20192;-73
2023/07/07 02:01:01;;;;;;;16.05;12.93;;;;;;;-146.25;100.00;52157.34;2087737;28;23295;-73
2023/07/07 02:02:04;;;;;;;13.88;11.68;;;;;;;-146.25;100.00;52173.56;2095308;28;29289;-73
2023/07/07 02:03:10;;;;;;;18.42;12.85;;;;;;;-146.25;100.00;52116.78;2088432;28;27920;-72
2023/07/07 02:04:12;;;;;;;13.68;12.27;;;;;;;-146.25;100.00;52155.31;2088219;28;21614;-73
2023/07/07 02:05:14;;;;;;;15.15;12.27;;;;;;;-146.25;100.00;52181.66;2087732;28;34731;-73
2023/07/07 02:06:16;;;;;;;18.25;13.43;;;;;;;-146.25;100.00;52177.59;2088943;28;28666;-73
2023/07/07 02:07:18;;;;;;;18.85;13.27;;;;;;;-146.25;100.00;52185.72;2088313;28;20148;-73
2023/07/07 02:08:20;;;;;;;16.83;12.45;;;;;;;-146.25;100.00;52141.13;2087969;28;30606;-74
2023/07/07 02:09:24;;;;;;;14.15;11.98;;;;;;;-146.25;100.00;52116.78;2087614;28;20045;-73
2023/07/07 02:10:25;;;;;;;13.60;12.27;;;;;;;-146.25;100.00;52137.06;2087813;28;33336;-74
2023/07/07 02:11:27;;;;;;;19.08;13.52;;;;;;;-146.25;100.00;52120.84;2088388;28;28144;-73
2023/07/07 02:12:30;;;;;;;14.70;12.70;;;;;;;-146.25;100.00;52155.31;2095814;28;31947;-74
2023/07/07 02:13:36;;;;;;;14.55;12.98;;;;;;;-146.25;100.00;52157.34;2095818;28;30912;-74
2023/07/07 02:14:38;;;;;;;16.35;12.18;;;;;;;-146.25;100.00;52189.78;2080363;28;20057;-74
2023/07/07 02:15:40;;;;;;;15.77;13.15;;;;;;;-146.25;100.00;52163.41;2072147;28;20073;-74
2023/07/07 02:16:41;;;;;;;14.23;11.93;;;;;;;-146.25;100.00;52177.59;2080442;28;20041;-73
2023/07/07 02:17:43;;;;;;;17.38;13.35;;;;;;;-146.25;100.00;52135.03;2088217;28;20053;-74
2023/07/07 02:18:48;;;;;;;14.40;12.48;;;;;;;-146.25;100.00;52128.94;2095854;28;34669;-73
2023/07/07 02:19:51;;;;;;;14.45;12.93;;;;;;;-146.25;100.00;52157.34;2088161;28;31431;-74
2023/07/07 02:20:53;;;;;;;18.77;14.00;;;;;;;-146.25;100.00;52187.75;2088264;28;20049;-73
2023/07/07 02:21:55;;;;;;;17.20;13.38;;;;;;;-146.25;100.00;52165.44;2088020;28;20880;-73
2023/07/07 02:22:59;;;;;;;14.68;12.82;;;;;;;-146.25;100.00;52151.25;2088301;28;20917;-73
2023/07/07 02:24:00;;;;;;;20.30;14.02;;;;;;;-146.25;100.00;52157.34;2087646;28;27212;-74
2023/07/07 02:25:03;;;;;;;18.25;14.55;;;;;;;-146.25;100.00;52167.47;2088530;28;29808;-73
2023/07/07 02:26:05;;;;;;;17.95;14.18;;;;;;;-146.25;100.00;52157.34;2088134;28;20041;-74
2023/07/07 02:27:10;;;;;;;19.83;15.60;;;;;;;-146.25;100.00;52147.19;2088280;28;25990;-73
2023/07/07 02:28:12;;;;;;;17.70;13.73;;;;;;;-146.25;100.00;52189.78;2087560;28;28682;-73
2023/07/07 02:29:14;;;;;;;15.55;13.93;;;;;;;-146.25;100.00;52116.78;2088266;28;29214;-73
2023/07/07 02:30:16;;;;;;;14.55;12.95;;;;;;;-146.25;100.00;52163.41;2088611;28;20041;-73
2023/07/07 02:31:18;;;;;;;15.57;12.65;;;;;;;-146.25;100.00;52151.25;2088667;28;27507;-73
2023/07/07 02:32:19;;;;;;;14.68;12.82;;;;;;;-146.25;100.00;52197.88;2088512;28;24232;-73
2023/07/07 02:33:30;;;;;;;16.05;12.50;;;;;;;-146.25;100.00;52165.44;2088039;28;20922;-73
2023/07/07 02:34:37;;;;;;;16.85;11.10;;;;;;;-146.25;100.00;52155.31;2081594;28;20042;-73
2023/07/07 02:35:39;;;;;;;14.48;11.27;;;;;;;-146.25;100.00;52135.03;2080091;28;25916;-73
2023/07/07 02:36:41;;;;;;;17.73;11.27;;;;;;;-146.25;100.00;52175.56;2079538;28;33216;-74
2023/07/07 02:37:43;;;;;;;14.73;13.05;;;;;;;-146.25;100.00;52199.91;2087891;28;25321;-73
2023/07/07 02:38:46;;;;;;;18.63;12.32;;;;;;;-146.25;100.00;52161.38;2088878;28;20045;-73
2023/07/07 02:39:47;;;;;;;15.40;12.07;;;;;;;-146.25;100.00;52177.59;2087546;28;29297;-73
2023/07/07 02:40:49;;;;;;;15.88;12.20;;;;;;;-146.25;100.00;52151.25;2080017;28;20038;-73
2023/07/07 02:41:53;;;;;;;15.30;11.60;;;;;;;-146.25;100.00;52171.53;2087519;28;29420;-73
2023/07/07 02:42:55;;;;;;;14.50;12.95;;;;;;;-146.25;100.00;52133.00;2088520;28;27488;-73
2023/07/07 02:43:58;;;;;;;16.65;13.48;;;;;;;-146.25;100.00;52149.22;2113297;22;20037;-73
2023/07/07 02:45:03;;;;;;;16.30;13.15;;;;;;;-146.25;100.00;52159.34;2090764;28;20045;-73
2023/07/07 02:46:05;;;;;;;17.35;14.57;;;;;;;-146.25;100.00;52163.41;2088677;28;21750;-73
2023/07/07 02:47:09;;;;;;;19.02;16.02;;;;;;;-146.25;100.00;52169.50;2088063;28;20673;-73
2023/07/07 02:48:10;;;;;;;15.57;13.05;;;;;;;-146.25;100.00;52175.56;2088052;28;20119;-73
2023/07/07 02:49:16;;;;;;;21.05;14.63;;;;;;;-146.25;100.00;52183.69;2088904;28;20048;-73
2023/07/07 02:50:18;;;;;;;21.90;16.48;;;;;;;-146.25;100.00;52163.41;2088721;28;20053;-73
2023/07/07 02:51:20;;;;;;;20.02;15.20;;;;;;;-146.25;100.00;52175.56;2088094;28;20044;-72
2023/07/07 02:52:24;;;;;;;18.85;14.80;;;;;;;-146.25;100.00;52165.44;2088003;28;20172;-73
2023/07/07 02:53:30;;;;;;;19.73;15.25;;;;;;;-146.25;100.00;52181.66;2080117;28;20101;-73
2023/07/07 02:54:33;;;;;;;16.23;14.23;;;;;;;-146.25;100.00;52149.22;2079954;28;20164;-72
2023/07/07 02:55:34;;;;;;;16.48;14.35;;;;;;;-146.25;100.00;52169.50;2079625;28;20108;-73
2023/07/07 02:56:36;;;;;;;20.55;16.13;;;;;;;-146.25;100.00;52167.47;2079365;28;20291;-73
2023/07/07 02:57:38;;;;;;;16.83;14.35;;;;;;;-146.25;100.00;52179.63;2088395;28;20038;-73
2023/07/07 02:58:40;;;;;;;18.77;14.63;;;;;;;-146.25;100.00;52159.34;2087441;28;20175;-73
2023/07/07 02:59:42;;;;;;;14.98;13.13;;;;;;;-146.25;100.00;52143.13;2088510;28;20045;-73
2023/07/07 03:00:44;;;;;;;14.93;13.07;;;;;;;-146.25;100.00;52147.19;2087801;28;20686;-72
2023/07/07 03:01:46;;;;;;;20.00;13.77;;;;;;;-146.25;100.00;52177.59;2088142;28;20973;-73
2023/07/07 03:02:48;;;;;;;14.23;12.77;;;;;;;-146.25;100.00;52193.81;2087853;28;21048;-73
2023/07/07 03:03:52;;;;;;;17.08;13.20;;;;;;;-146.25;100.00;52173.56;2087822;28;20034;-72
2023/07/07 03:04:54;;;;;;;17.48;14.80;;;;;;;-146.25;100.00;52165.44;2079395;28;25341;-73
2023/07/07 03:06:03;;;;;;;22.67;14.82;;;;;;;-146.25;100.00;52155.31;2072255;28;20939;-73
2023/07/07 03:07:07;;;;;;;17.00;13.55;;;;;;;-146.25;100.00;52157.34;2080953;28;20124;-72
2023/07/07 03:08:10;;;;;;;16.92;14.35;;;;;;;-146.25;100.00;52155.31;2088129;28;20879;-73
2023/07/07 03:09:11;;;;;;;14.57;12.75;;;;;;;-146.25;100.00;52181.66;2089582;28;20045;-72
2023/07/07 03:10:18;;;;;;;16.88;13.55;;;;;;;-146.25;100.00;52201.94;2088820;28;20107;-73
2023/07/07 03:11:22;;;;;;;16.88;13.82;;;;;;;-146.25;100.00;52159.34;2095705;28;28796;-73
2023/07/07 03:12:25;;;;;;;14.55;12.05;;;;;;;-146.25;100.00;52179.63;2087726;28;20045;-73
2023/07/07 03:13:27;;;;;;;14.13;12.25;;;;;;;-146.25;100.00;52165.44;2087485;28;20045;-72
2023/07/07 03:14:29;;;;;;;13.90;12.15;;;;;;;-146.25;100.00;52137.06;2097288;28;20048;-73
2023/07/07 03:15:38;;;;;;;16.50;13.20;;;;;;;-146.25;100.00;52145.16;2098102;28;20921;-73
2023/07/07 03:16:51;;;;;;;16.67;12.38;;;;;;;-146.25;100.00;52167.47;2088106;28;20053;-73
2023/07/07 03:17:59;;;;;;;13.18;11.77;;;;;;;-146.25;100.00;52210.03;2092975;28;20597;-73
2023/07/07 03:19:07;;;;;;;17.15;13.43;;;;;;;-146.25;100.00;52165.44;2104865;28;20045;-73
2023/07/07 03:20:19;;;;;;;15.98;13.38;;;;;;;-146.25;100.00;52199.91;2095854;28;20037;-73
2023/07/07 03:21:26;;;;;;;16.67;13.65;;;;;;;-146.25;100.00;52151.25;2088019;28;20087;-73
2023/07/07 03:22:36;;;;;;;19.90;14.35;;;;;;;-146.25;100.00;52167.47;2096605;28;20037;-73
2023/07/07 03:23:41;;;;;;;18.52;15.10;;;;;;;-146.25;100.00;52141.13;2087877;28;20172;-73
2023/07/07 03:24:45;;;;;;;17.48;13.05;;;;;;;-146.25;100.00;52153.28;2096434;28;20041;-73
2023/07/07 03:25:55;;;;;;;17.58;13.30;;;;;;;-146.25;100.00;52206.00;2095940;28;20148;-73
2023/07/07 03:26:59;;;;;;;17.67;14.10;;;;;;;-146.25;100.00;52173.56;2096294;28;20037;-73
2023/07/07 03:28:05;;;;;;;15.90;13.85;;;;;;;-146.25;100.00;52214.09;2096005;28;20883;-73
2023/07/07 03:29:13;;;;;;;16.35;14.07;;;;;;;-146.25;100.00;52175.56;2096346;28;20040;-73
2023/07/07 03:30:16;;;;;;;21.30;15.25;;;;;;;-146.25;100.00;52151.25;2095538;28;20858;-72
2023/07/07 03:31:31;;;;;;;20.92;13.80;;;;;;;-146.25;100.00;52128.94;2097494;28;20041;-72
2023/07/07 03:32:34;;;;;;;17.52;15.07;;;;;;;-146.25;100.00;52173.56;2095114;28;20048;-73
2023/07/07 03:33:41;;;;;;;17.10;14.15;;;;;;;-146.25;100.00;52197.88;2097211;28;20114;-73
2023/07/07 03:34:47;;;;;;;17.75;14.77;;;;;;;-146.25;100.00;52141.13;2095833;28;20041;-73
2023/07/07 03:35:51;;;;;;;16.52;13.93;;;;;;;-146.25;100.00;52177.59;2096154;28;23032;-73
2023/07/07 03:36:53;;;;;;;14.50;12.98;;;;;;;-146.25;100.00;52181.66;2095762;28;20045;-73
2023/07/07 03:37:55;;;;;;;15.95;14.05;;;;;;;-146.25;100.00;52218.16;2087863;28;21013;-73
2023/07/07 03:38:57;;;;;;;16.70;13.15;;;;;;;-146.25;100.00;52165.44;2087674;28;20369;-72
2023/07/07 03:39:59;;;;;;;21.02;16.10;;;;;;;-146.25;100.00;52165.44;2095682;28;20163;-73
2023/07/07 03:41:03;;;;;;;16.92;13.77;;;;;;;-146.25;100.00;52199.91;2104396;28;20052;-72
2023/07/07 03:42:08;;;;;;;14.27;12.75;;;;;;;-146.25;100.00;52210.03;2096074;28;20040;-73
2023/07/07 03:43:11;;;;;;;14.57;13.02;;;;;;;-146.25;100.00;52161.38;2095647;28;20122;-73
2023/07/07 03:44:15;;;;;;;14.65;12.02;;;;;;;-146.25;100.00;52185.72;2104037;28;26650;-73
2023/07/07 03:45:20;;;;;;;16.80;14.23;;;;;;;-146.25;100.00;52185.72;2095871;28;20270;-73
2023/07/07 03:46:25;;;;;;;14.40;12.90;;;;;;;-146.25;100.00;52206.00;2096661;28;21049;-72
2023/07/07 03:47:27;;;;;;;15.25;13.30;;;;;;;-146.25;100.00;52187.75;2104249;28;20032;-73
2023/07/07 03:48:30;;;;;;;18.20;13.95;;;;;;;-146.25;100.00;52191.81;2104092;28;20052;-73
2023/07/07 03:49:34;;;;;;;15.63;13.35;;;;;;;-146.25;100.00;52201.94;2095646;28;21043;-73
2023/07/07 03:50:37;;;;;;;15.35;12.73;;;;;;;-146.25;100.00;52175.56;2095829;28;20123;-72
2023/07/07 03:51:39;;;;;;;17.67;13.52;;;;;;;-146.25;100.00;52201.94;2095603;28;20194;-73
2023/07/07 03:52:43;;;;;;;17.92;13.88;;;;;;;-146.25;100.00;52169.50;2095677;28;20037;-73
2023/07/07 03:53:48;;;;;;;14.80;13.05;;;;;;;-146.25;100.00;52222.22;2095528;28;20702;-73
2023/07/07 03:54:51;;;;;;;15.02;12.32;;;;;;;-146.25;100.00;52177.59;2103182;28;21104;-72
2023/07/07 03:55:54;;;;;;;16.17;13.68;;;;;;;-146.25;100.00;52153.28;2103596;28;30031;-73
2023/07/07 03:56:57;;;;;;;14.80;11.45;;;;;;;-146.25;100.00;52149.22;2096486;28;26362;-73
2023/07/07 03:57:59;;;;;;;14.23;11.38;;;;;;;-146.25;100.00;52173.56;2095336;28;35756;-73
2023/07/07 03:59:01;;;;;;;15.57;13.68;;;;;;;-146.25;100.00;52189.78;2087511;28;20422;-73
2023/07/07 04:00:03;;;;;;;16.70;13.00;;;;;;;-146.25;100.00;52183.69;2096024;28;20853;-73
2023/07/07 04:01:15;;;;;;;15.43;13.82;;;;;;;-146.25;100.00;52135.03;2101927;28;20059;-73
2023/07/07 04:02:21;;;;;;;18.83;14.00;;;;;;;-146.25;100.00;52157.34;2097001;28;20033;-73
2023/07/07 04:03:24;;;;;;;17.05;14.60;;;;;;;-146.25;100.00;52181.66;2096258;28;24649;-72
2023/07/07 04:04:26;;;;;;;18.58;16.40;;;;;;;-146.25;100.00;52185.72;2095254;28;36342;-73
2023/07/07 04:05:27;;;;;;;17.95;16.05;;;;;;;-146.25;100.00;52206.00;2103856;28;24107;-73
2023/07/07 04:06:35;;;;;;;17.05;15.30;;;;;;;-146.25;100.00;52161.38;2104062;28;27464;-73
2023/07/07 04:07:39;;;;;;;19.13;14.93;;;;;;;-146.25;100.00;52161.38;2087581;28;20042;-73
2023/07/07 04:08:43;;;;;;;18.02;14.27;;;;;;;-146.25;100.00;52195.84;2081166;28;20081;-73
2023/07/07 04:09:45;;;;;;;19.02;13.77;;;;;;;-146.25;100.00;52212.06;2095726;28;20198;-73
2023/07/07 04:11:00;;;;;;;14.25;12.48;;;;;;;-146.25;100.00;52183.69;2095900;28;27356;-73
2023/07/07 04:12:06;;;;;;;12.48;10.70;;;;;;;-146.25;100.00;52191.81;2095666;28;32097;-73
2023/07/07 04:13:08;;;;;;;13.60;9.68;;;;;;;-146.25;100.00;52240.47;2096889;28;20033;-73
2023/07/07 04:14:10;;;;;;;10.68;8.88;;;;;;;-146.25;100.00;52203.97;2095813;28;33389;-73
2023/07/07 04:15:16;;;;;;;11.02;8.90;;;;;;;-146.25;100.00;52226.25;2095855;28;20901;-73
2023/07/07 04:16:24;;;;;;;9.77;7.78;;;;;;;-146.25;100.00;52220.19;2087967;28;20697;-74
2023/07/07 04:17:26;;;;;;;10.30;7.43;;;;;;;-146.25;98.14;52210.03;2088669;28;20882;-74
2023/07/07 04:18:32;;;;;;;8.85;6.85;;;;;;;-146.25;89.61;52206.00;2095780;28;20038;-73
2023/07/07 04:19:36;;;;;;;8.20;6.78;;;;;;;-146.25;85.74;52187.75;2095860;28;20111;-74
2023/07/07 04:20:38;;;;;;;8.00;7.10;;;;;;;-146.25;84.90;52218.16;2096341;28;21826;-73
2023/07/07 04:21:40;;;;;;;7.63;6.93;;;;;;;-146.25;83.85;52220.19;2096409;28;25097;-74
2023/07/07 04:22:42;;;;;;;12.30;6.65;;;;;;;-146.25;80.14;52197.88;2095823;28;31333;-74
2023/07/07 04:23:48;;;;;;;6.88;6.22;;;;;;;-146.25;75.22;52228.28;2096889;28;20819;-74
2023/07/07 04:25:15;;;;;;;7.63;6.82;;;;;;;-146.25;75.58;52206.00;2095245;28;34837;-73
2023/07/07 04:26:19;;;;;;;6.88;5.93;;;;;;;-146.25;74.83;52183.69;2097827;28;20883;-73
2023/07/07 04:27:24;;;;;;;6.53;5.75;;;;;;;-146.25;72.20;52210.03;2097285;28;20080;-73
2023/07/07 04:28:26;;;;;;;8.75;6.05;;;;;;;-146.25;69.73;52210.03;2096561;28;35176;-73
2023/07/07 04:29:28;;;;;;;6.53;5.72;;;;;;;-146.25;67.60;52187.75;2098386;28;20894;-73
2023/07/07 04:30:29;;;;;;;7.05;6.10;;;;;;;-146.25;68.29;52201.94;2097325;28;35461;-73
2023/07/07 04:31:33;;;;;;;7.75;5.97;;;;;;;-146.25;65.11;52210.03;2097741;28;35573;-73
2023/07/07 04:32:36;;;;;;;6.88;5.28;;;;;;;-146.25;61.60;52179.63;2097888;28;20720;-73
2023/07/07 04:33:39;;;;;;;7.38;5.47;;;;;;;-146.25;60.84;52193.81;2096949;28;36434;-74
2023/07/07 04:34:41;;;;;;;7.25;5.43;;;;;;;-146.25;61.55;52187.75;2097261;28;20041;-72
2023/07/07 04:35:51;;;;;;;6.78;5.40;;;;;;;-146.25;59.56;52197.88;2098128;28;23615;-74
2023/07/07 04:36:54;;;;;;;6.72;5.28;;;;;;;-146.25;57.02;52175.56;2097311;28;38777;-71
2023/07/07 04:37:55;;;;;;;8.50;5.50;;;;;;;-146.25;56.58;52165.44;2097213;28;20037;-73
2023/07/07 04:38:58;;;;;;;5.75;5.15;;;;;;;-146.25;58.31;52191.81;2096639;28;37881;-73
2023/07/07 04:40:00;;;;;;;6.57;4.88;;;;;;;-146.25;57.25;52222.22;2089013;28;34485;-73
2023/07/07 04:41:13;;;;;;;5.80;4.70;;;;;;;-146.25;53.08;52161.38;2088489;28;31949;-73
2023/07/07 04:42:15;;;;;;;8.10;4.57;;;;;;;-146.25;51.20;52179.63;2088949;28;37296;-73
2023/07/07 04:43:17;;;;;;;6.80;5.25;;;;;;;-146.25;51.56;52122.88;2089552;28;20920;-72
2023/07/07 04:44:19;;;;;;;7.03;4.55;;;;;;;-146.25;52.18;52159.34;2089220;28;34663;-73
2023/07/07 04:45:21;;;;;;;4.80;4.15;;;;;;;-146.25;52.29;52137.06;2088776;28;32114;-73
2023/07/07 04:46:33;;;;;;;5.78;4.70;;;;;;;-146.25;49.44;52157.34;2089975;28;20041;-73
2023/07/07 04:47:35;;;;;;;5.40;4.40;;;;;;;-146.25;50.00;52126.91;2089006;28;36213;-73
2023/07/07 04:48:37;;;;;;;5.63;4.30;;;;;;;-146.25;45.71;52128.94;2089021;28;31365;-73
2023/07/07 04:49:38;;;;;;;7.22;4.95;;;;;;;-146.25;48.08;52137.06;2088152;28;33695;-73
2023/07/07 04:50:40;;;;;;;6.40;5.03;;;;;;;-146.25;45.04;52165.44;2080630;28;37682;-73
2023/07/07 04:51:42;;;;;;;5.38;4.55;;;;;;;-146.25;46.64;52139.09;2089074;28;20044;-73
2023/07/07 04:52:44;;;;;;;4.97;4.00;;;;;;;-146.25;46.70;52110.69;2088630;28;32872;-73
2023/07/07 04:53:46;;;;;;;5.60;4.30;;;;;;;-146.25;46.33;52110.69;2088281;28;36457;-73
2023/07/07 04:54:49;;;;;;;5.45;4.32;;;;;;;-146.25;45.79;52130.97;2096859;28;33080;-74